createdAt,value
2019-05-22T00:00:44.284Z,28.35
2019-05-22T00:04:56.733Z,28.52
2019-05-22T00:09:04.901Z,33.38
2019-05-22T00:13:13.931Z,28.25
2019-05-22T00:17:25.579Z,29.35
2019-05-22T00:21:30.470Z,29.50
2019-05-22T00:25:36.106Z,30.95
2019-05-22T00:29:43.609Z,33.38
2019-05-22T00:33:49.434Z,28.00
2019-05-22T00:37:54.430Z,28.75
2019-05-22T00:41:59.279Z,28.40
2019-05-22T00:46:05.127Z,24.40
2019-05-22T00:50:13.106Z,23.15
2019-05-22T00:54:23.058Z,21.52
2019-05-22T00:58:32.913Z,19.75
2019-05-22T01:02:39.445Z,19.73
2019-05-22T01:06:46.783Z,20.48
2019-05-22T01:10:53.105Z,19.50
2019-05-22T01:15:04.167Z,17.05
2019-05-22T01:19:10.768Z,15.83
2019-05-22T01:23:19.759Z,15.23
2019-05-22T01:27:26.563Z,16.40
2019-05-22T01:31:47.843Z,17.52
2019-05-22T01:36:10.689Z,17.98
2019-05-22T01:40:26.443Z,17.87
2019-05-22T01:44:31.198Z,15.28
2019-05-22T01:48:38.277Z,16.10
2019-05-22T01:52:43.296Z,16.93
2019-05-22T01:56:48.781Z,16.77
2019-05-22T02:00:55.616Z,14.18
2019-05-22T02:05:02.097Z,14.28
2019-05-22T02:09:19.605Z,13.88
2019-05-22T02:13:33.294Z,11.97
2019-05-22T02:17:39.464Z,12.78
2019-05-22T02:21:45.157Z,11.88
2019-05-22T02:25:50.294Z,12.60
2019-05-22T02:29:56.017Z,10.08
2019-05-22T02:34:04.588Z,10.23
2019-05-22T02:38:10.412Z,10.90
2019-05-22T02:42:20.634Z,9.30
2019-05-22T02:46:31.483Z,8.83
2019-05-22T02:50:37.763Z,8.63
2019-05-22T02:54:45.642Z,8.85
2019-05-22T02:58:52.724Z,9.38
2019-05-22T03:02:58.508Z,9.93
2019-05-22T03:07:04.322Z,10.53
2019-05-22T03:11:09.659Z,12.15
2019-05-22T03:15:16.477Z,12.98
2019-05-22T03:19:41.149Z,13.05
2019-05-22T03:23:45.968Z,13.25
2019-05-22T03:27:51.953Z,13.53
2019-05-22T03:31:56.671Z,12.63
2019-05-22T03:36:08.603Z,11.43
2019-05-22T03:40:14.079Z,11.53
2019-05-22T03:44:19.237Z,12.37
2019-05-22T03:48:25.212Z,13.78
2019-05-22T03:52:30.625Z,12.80
2019-05-22T03:56:41.005Z,12.40
2019-05-22T04:00:46.380Z,11.20
2019-05-22T04:04:51.529Z,12.05
2019-05-22T04:08:57.812Z,11.55
2019-05-22T04:13:04.551Z,12.63
2019-05-22T04:17:12.970Z,12.53
2019-05-22T04:21:17.971Z,12.85
2019-05-22T04:25:24.127Z,11.65
2019-05-22T04:29:29.058Z,11.85
2019-05-22T04:33:34.426Z,12.00
2019-05-22T04:37:39.520Z,12.37
2019-05-22T04:41:44.882Z,12.60
2019-05-22T04:45:50.319Z,12.00
2019-05-22T04:50:06.687Z,12.40
2019-05-22T04:54:01.713Z,13.05
2019-05-22T04:58:08.378Z,12.33
2019-05-22T05:02:13.235Z,12.68
2019-05-22T05:06:20.376Z,11.28
2019-05-22T05:10:26.373Z,10.78
2019-05-22T05:14:31.746Z,10.30
2019-05-22T05:18:36.996Z,8.90
2019-05-22T05:22:44.604Z,8.25
2019-05-22T05:26:50.378Z,7.67
2019-05-22T05:30:56.608Z,6.87
2019-05-22T05:35:07.180Z,6.80
2019-05-22T05:40:08.055Z,7.30
2019-05-22T05:44:13.256Z,7.58
2019-05-22T05:48:22.903Z,8.25
2019-05-22T05:52:29.625Z,7.90
2019-05-22T05:56:35.688Z,8.83
2019-05-22T06:00:45.800Z,7.95
2019-05-22T06:04:50.401Z,9.03
2019-05-22T06:08:56.469Z,8.80
2019-05-22T06:13:02.314Z,8.70
2019-05-22T06:17:51.914Z,9.53
2019-05-22T06:21:58.305Z,10.48
2019-05-22T06:26:03.040Z,10.18
2019-05-22T06:30:10.656Z,10.18
2019-05-22T06:34:15.631Z,9.60
2019-05-22T06:38:48.143Z,9.13
2019-05-22T06:43:34.207Z,9.38
2019-05-22T06:47:38.809Z,9.28
2019-05-22T06:51:43.813Z,10.40
2019-05-22T06:55:48.578Z,9.30
2019-05-22T07:00:11.295Z,9.08
2019-05-22T07:04:00.299Z,8.45
2019-05-22T07:08:07.873Z,7.67
2019-05-22T07:12:15.124Z,8.93
2019-05-22T07:16:21.411Z,7.90
2019-05-22T07:20:28.546Z,8.50
2019-05-22T07:24:33.531Z,8.68
2019-05-22T07:28:41.793Z,7.72
2019-05-22T07:32:46.743Z,7.33
2019-05-22T07:36:51.619Z,6.80
2019-05-22T07:40:56.821Z,7.67
2019-05-22T07:45:01.478Z,7.70
2019-05-22T07:49:06.610Z,8.13
2019-05-22T07:53:11.622Z,7.58
2019-05-22T07:57:20.125Z,8.03
2019-05-22T08:01:25.173Z,6.92
2019-05-22T08:05:33.334Z,6.65
2019-05-22T08:09:37.955Z,6.15
2019-05-22T08:13:43.954Z,6.17
2019-05-22T08:17:48.880Z,6.25
2019-05-22T08:22:06.284Z,6.03
2019-05-22T08:26:00.362Z,6.20
2019-05-22T08:30:07.813Z,5.95
2019-05-22T08:34:13.231Z,6.65
2019-05-22T08:38:18.588Z,5.78
2019-05-22T08:42:24.253Z,5.90
2019-05-22T08:46:31.634Z,6.08
2019-05-22T08:50:41.010Z,5.78
2019-05-22T08:54:47.320Z,6.22
2019-05-22T08:58:54.162Z,5.83
2019-05-22T09:02:59.166Z,6.00
2019-05-22T09:07:03.987Z,6.15
2019-05-22T09:11:08.684Z,6.47
2019-05-22T09:15:13.945Z,6.50
2019-05-22T09:19:18.697Z,6.80
2019-05-22T09:23:23.596Z,7.58
2019-05-22T09:27:28.918Z,7.08
2019-05-22T09:31:33.594Z,6.45
2019-05-22T09:35:38.529Z,6.78
2019-05-22T09:39:43.463Z,6.58
2019-05-22T09:43:48.314Z,7.10
2019-05-22T09:47:53.313Z,6.50
2019-05-22T09:51:58.038Z,6.37
2019-05-22T09:56:04.663Z,6.30
2019-05-22T10:00:10.899Z,6.17
2019-05-22T10:04:16.698Z,6.50
2019-05-22T10:08:21.806Z,6.00
2019-05-22T10:12:26.759Z,6.62
2019-05-22T10:16:31.577Z,5.90
2019-05-22T10:20:36.885Z,5.97
2019-05-22T10:24:42.955Z,5.75
2019-05-22T10:28:48.334Z,5.78
2019-05-22T10:32:53.083Z,5.78
2019-05-22T10:36:58.217Z,5.87
2019-05-22T10:41:02.839Z,5.65
2019-05-22T10:45:08.937Z,5.72
2019-05-22T10:49:13.947Z,6.60
2019-05-22T10:53:32.862Z,5.78
2019-05-22T10:57:26.101Z,6.67
2019-05-22T11:01:31.322Z,6.37
2019-05-22T11:05:36.372Z,6.83
2019-05-22T11:09:42.105Z,6.42
2019-05-22T13:03:09.755Z,16.48
2019-05-22T13:07:15.564Z,16.02
2019-05-22T13:11:20.546Z,15.78
2019-05-22T13:15:25.845Z,16.48
2019-05-22T13:19:33.251Z,17.05
2019-05-22T13:23:39.373Z,17.75
2019-05-22T13:27:45.767Z,21.12
2019-05-22T13:31:52.514Z,21.77
2019-05-22T13:35:57.419Z,19.02
2019-05-22T13:40:04.273Z,19.77
2019-05-22T13:44:09.206Z,20.75
2019-05-22T13:48:14.304Z,20.45
2019-05-22T13:52:19.677Z,21.30
2019-05-22T13:56:25.572Z,20.10
2019-05-22T14:00:30.977Z,20.35
2019-05-22T14:04:35.913Z,20.77
2019-05-22T14:08:41.469Z,20.30
2019-05-22T14:12:46.935Z,19.48
2019-05-22T14:16:52.097Z,19.10
2019-05-22T14:21:09.175Z,20.68
2019-05-22T14:25:15.177Z,19.92
2019-05-22T14:29:20.071Z,18.75
2019-05-22T14:33:28.109Z,19.12
2019-05-22T14:37:32.287Z,17.57
2019-05-22T14:41:36.929Z,18.35
2019-05-22T14:45:43.438Z,17.70
2019-05-22T14:49:48.378Z,18.10
2019-05-22T14:53:56.435Z,18.57
2019-05-22T14:58:02.563Z,19.60
2019-05-22T15:02:08.252Z,19.10
2019-05-22T15:06:13.211Z,20.77
2019-05-22T15:10:19.966Z,19.40
2019-05-22T15:14:25.742Z,19.35
2019-05-22T15:18:30.850Z,18.62
2019-05-22T15:22:36.215Z,19.02
2019-05-22T15:26:41.627Z,18.32
2019-05-22T15:30:47.314Z,17.45
2019-05-22T15:34:52.677Z,17.62
2019-05-22T15:38:57.783Z,16.80
2019-05-22T15:43:03.124Z,15.20
2019-05-22T15:47:08.464Z,15.35
2019-05-22T15:51:13.950Z,15.45
2019-05-22T15:55:21.054Z,14.70
2019-05-22T15:59:27.731Z,14.28
2019-05-22T16:03:33.273Z,12.93
2019-05-22T16:07:40.371Z,14.25
2019-05-22T16:11:50.588Z,14.47
2019-05-22T16:15:56.874Z,15.13
2019-05-22T16:20:04.049Z,14.70
2019-05-22T16:24:11.363Z,13.53
2019-05-22T16:28:24.295Z,12.85
2019-05-22T16:32:29.071Z,13.65
2019-05-22T16:36:34.375Z,14.50
2019-05-22T16:40:39.541Z,15.30
2019-05-22T16:44:45.714Z,14.40
2019-05-22T16:48:51.863Z,13.55
2019-05-22T16:52:58.268Z,12.65
2019-05-22T16:57:04.334Z,12.43
2019-05-22T17:01:09.922Z,12.18
2019-05-22T17:05:15.835Z,11.00
2019-05-22T17:09:21.147Z,12.95
2019-05-22T17:13:28.512Z,10.32
2019-05-22T17:17:34.362Z,11.78
2019-05-22T17:21:40.627Z,10.63
2019-05-22T17:25:45.662Z,9.00
2019-05-22T17:29:51.579Z,9.35
2019-05-22T17:33:56.485Z,9.35
2019-05-22T17:38:01.218Z,10.23
2019-05-22T17:42:09.118Z,10.00
2019-05-22T17:46:15.150Z,10.82
2019-05-22T17:50:26.826Z,7.90
2019-05-22T17:54:28.965Z,9.78
2019-05-22T17:58:34.020Z,10.05
2019-05-22T18:02:39.835Z,8.70
2019-05-22T18:06:44.638Z,12.65
2019-05-22T18:10:50.188Z,11.40
2019-05-22T18:14:55.267Z,8.90
2019-05-22T18:19:00.094Z,9.45
2019-05-22T18:23:05.641Z,8.43
2019-05-22T18:27:11.041Z,8.85
2019-05-22T18:31:16.376Z,10.50
2019-05-22T18:35:21.327Z,10.28
2019-05-22T18:39:26.581Z,8.18
2019-05-22T18:43:31.566Z,8.05
2019-05-22T18:47:36.407Z,7.35
2019-05-22T18:51:41.246Z,7.55
2019-05-22T18:55:46.144Z,7.95
2019-05-22T18:59:50.958Z,7.47
2019-05-22T19:03:55.715Z,7.92
2019-05-22T19:08:01.299Z,7.72
2019-05-22T19:12:06.539Z,6.83
2019-05-22T19:16:11.859Z,7.75
2019-05-22T19:20:17.396Z,6.12
2019-05-22T19:24:22.211Z,6.00
2019-05-22T19:28:42.315Z,6.12
2019-05-22T19:32:34.250Z,6.08
2019-05-22T19:36:40.226Z,5.30
2019-05-22T19:40:45.370Z,6.72
2019-05-22T19:44:50.420Z,4.87
2019-05-22T19:48:55.675Z,4.87
2019-05-22T19:53:17.549Z,4.67
2019-05-22T19:57:08.631Z,5.37
2019-05-22T20:01:14.328Z,5.12
2019-05-22T20:05:21.027Z,5.17
2019-05-22T20:09:27.103Z,5.65
2019-05-22T20:13:31.981Z,4.40
2019-05-22T20:17:37.586Z,5.35
2019-05-22T20:21:43.529Z,4.70
2019-05-22T20:25:48.447Z,5.75
2019-05-22T20:29:53.603Z,5.00
2019-05-22T20:33:58.680Z,4.67
2019-05-22T20:38:04.313Z,4.67
2019-05-22T20:42:09.886Z,4.22
2019-05-22T20:46:18.617Z,4.30
2019-05-22T20:50:25.611Z,5.08
2019-05-22T20:54:30.773Z,4.20
2019-05-22T20:58:36.483Z,5.20
2019-05-22T21:02:46.599Z,4.05
2019-05-22T21:07:00.357Z,5.35
2019-05-22T21:11:08.725Z,5.42
2019-05-22T21:15:16.499Z,4.83
2019-05-22T21:19:23.672Z,4.67
2019-05-22T21:23:29.519Z,5.08
2019-05-22T21:27:34.554Z,4.20
2019-05-22T21:31:39.674Z,4.70
2019-05-22T21:35:44.372Z,4.65
2019-05-22T21:39:49.866Z,4.55
2019-05-22T21:43:54.890Z,4.30
2019-05-22T21:48:01.132Z,4.58
2019-05-22T21:52:06.677Z,4.35
2019-05-22T21:56:11.359Z,4.42
2019-05-22T22:00:21.869Z,4.53
2019-05-22T22:04:30.586Z,4.67
2019-05-22T22:08:36.286Z,4.22
2019-05-22T22:12:41.589Z,4.62
2019-05-22T22:16:46.914Z,4.15
2019-05-22T22:20:52.060Z,5.00
2019-05-22T22:24:57.594Z,4.58
2019-05-22T22:29:02.667Z,4.97
2019-05-22T22:33:13.104Z,4.55
2019-05-22T22:37:18.940Z,5.45
2019-05-22T22:41:24.172Z,4.70
2019-05-22T22:45:43.768Z,4.83
2019-05-22T22:49:49.090Z,5.22
2019-05-22T22:53:55.931Z,4.78
2019-05-22T22:58:16.114Z,4.70
2019-05-22T23:02:11.502Z,4.40
2019-05-22T23:06:17.040Z,5.20
2019-05-22T23:10:23.035Z,5.12
2019-05-22T23:14:29.487Z,5.17
2019-05-22T23:19:28.062Z,5.00
2019-05-22T23:23:32.369Z,4.92
2019-05-22T23:27:39.145Z,4.45
2019-05-22T23:31:45.049Z,4.45
2019-05-22T23:35:50.103Z,4.78
2019-05-22T23:39:54.826Z,4.83
2019-05-22T23:44:00.792Z,4.72
2019-05-22T23:48:16.010Z,4.12
2019-05-22T23:52:21.125Z,4.70
2019-05-22T23:56:26.413Z,4.28
